Time;durP1;ratioP1;P1;durP2;ratioP2;P2;SDS_P1;SDS_P2;PMS_P1;PMS_P2;Temp;Humidity;BMP_temperature;BMP_pressure;BME280_temperature;BME280_humidity;BME280_pressure;Samples;Min_cycle;Max_cycle;Signal;HPM_P1;HPM_P2
2023/11/19 00:02:08;;;;;;;;;;;19.40;66.90;;;;;;5003075;28;1471;-69
2023/11/19 00:04:36;;;;;;;;;;;19.40;67.00;;;;;;5003282;28;1465;-69
2023/11/19 00:07:03;;;;;;;;;;;19.40;67.00;;;;;;5004653;28;1364;-69
2023/11/19 00:09:29;;;;;;;;;;;19.40;66.90;;;;;;5006104;28;1523;-71
2023/11/19 00:11:54;;;;;;;;;;;19.40;66.90;;;;;;5007888;28;1628;-71
2023/11/19 00:14:20;;;;;;;;;;;19.40;66.90;;;;;;5006255;28;1677;-71
2023/11/19 00:16:45;;;;;;;;;;;19.40;67.00;;;;;;5008133;28;1906;-70
2023/11/19 00:19:11;;;;;;;;;;;19.40;67.70;;;;;;5004103;28;1351;-70
2023/11/19 00:21:36;;;;;;;;;;;19.40;67.00;;;;;;5004627;28;1078;-70
2023/11/19 00:24:02;;;;;;;;;;;19.40;67.00;;;;;;5004274;28;1406;-71
2023/11/19 00:26:27;;;;;;;;;;;19.30;66.90;;;;;;5005188;28;1386;-70
2023/11/19 00:28:53;;;;;;;;;;;19.30;67.00;;;;;;5005758;28;1386;-70
2023/11/19 00:31:18;;;;;;;;;;;19.40;67.00;;;;;;5004024;28;1556;-71
2023/11/19 00:33:44;;;;;;;;;;;19.40;67.10;;;;;;5002545;28;1390;-69
2023/11/19 00:36:09;;;;;;;;;;;19.40;67.10;;;;;;5002650;28;1902;-69
2023/11/19 00:38:34;;;;;;;;;;;19.40;67.10;;;;;;5003351;28;1460;-69
2023/11/19 00:41:00;;;;;;;;;;;19.30;67.00;;;;;;5001374;28;1254;-70
2023/11/19 00:43:27;;;;;;;;;;;19.30;67.10;;;;;;5004065;28;1544;-69
2023/11/19 00:45:52;;;;;;;;;;;19.30;67.10;;;;;;5006946;28;1455;-69
2023/11/19 00:48:18;;;;;;;;;;;19.30;67.00;;;;;;5002832;28;1145;-70
2023/11/19 00:50:45;;;;;;;;;;;19.30;67.10;;;;;;4999050;28;1318;-70
2023/11/19 00:53:10;;;;;;;;;;;19.30;67.10;;;;;;5004129;28;1457;-70
2023/11/19 00:55:36;;;;;;;;;;;19.40;67.10;;;;;;5002727;28;1906;-70
2023/11/19 00:58:03;;;;;;;;;;;19.30;67.10;;;;;;5000542;28;1351;-71
2023/11/19 01:00:28;;;;;;;;;;;19.30;67.10;;;;;;5007208;28;1300;-71
2023/11/19 01:02:53;;;;;;;;;;;19.30;67.10;;;;;;5004483;28;1581;-70
2023/11/19 01:05:22;;;;;;;;;;;19.30;67.10;;;;;;5001018;28;1757;-71
2023/11/19 01:07:47;;;;;;;;;;;19.30;67.10;;;;;;5003695;28;1332;-71
2023/11/19 01:10:13;;;;;;;;;;;19.30;67.10;;;;;;5006001;28;1544;-71
2023/11/19 01:12:38;;;;;;;;;;;19.30;67.10;;;;;;5000727;28;1464;-70
2023/11/19 01:15:05;;;;;;;;;;;19.30;67.10;;;;;;5003438;28;2013;-71
2023/11/19 01:17:31;;;;;;;;;;;19.30;67.20;;;;;;5003369;28;1105;-70
2023/11/19 01:19:57;;;;;;;;;;;19.30;67.20;;;;;;5009566;28;1293;-70
2023/11/19 01:22:23;;;;;;;;;;;19.30;67.20;;;;;;5001176;28;1216;-72
2023/11/19 01:24:48;;;;;;;;;;;19.30;67.20;;;;;;5003563;28;1649;-71
2023/11/19 01:27:14;;;;;;;;;;;19.30;67.20;;;;;;5000563;28;1162;-72
2023/11/19 01:29:39;;;;;;;;;;;19.30;67.20;;;;;;5002664;28;1289;-72
2023/11/19 01:32:05;;;;;;;;;;;19.30;67.20;;;;;;5001786;28;1528;-72
2023/11/19 01:34:31;;;;;;;;;;;19.30;67.30;;;;;;5000930;28;1450;-71
2023/11/19 01:36:56;;;;;;;;;;;19.30;67.20;;;;;;5002216;28;1922;-72
2023/11/19 01:39:22;;;;;;;;;;;19.30;67.20;;;;;;4999546;28;2336;-72
2023/11/19 01:41:47;;;;;;;;;;;19.30;67.20;;;;;;5003349;28;1512;-71
2023/11/19 01:44:13;;;;;;;;;;;19.30;67.30;;;;;;5004642;28;1312;-71
2023/11/19 01:46:40;;;;;;;;;;;19.30;67.30;;;;;;5001875;28;1343;-72
2023/11/19 01:49:05;;;;;;;;;;;19.30;67.30;;;;;;5001949;28;1382;-71
2023/11/19 01:51:31;;;;;;;;;;;19.30;67.30;;;;;;5003134;28;1507;-71
2023/11/19 01:53:57;;;;;;;;;;;19.30;67.30;;;;;;5003041;28;1451;-70
2023/11/19 01:56:22;;;;;;;;;;;19.30;67.30;;;;;;5002114;28;1934;-70
2023/11/19 01:58:48;;;;;;;;;;;19.30;67.50;;;;;;5004466;28;1249;-70
2023/11/19 02:01:13;;;;;;;;;;;19.30;67.30;;;;;;4998660;28;1575;-71
2023/11/19 02:03:39;;;;;;;;;;;19.30;67.30;;;;;;5004687;28;1560;-70
2023/11/19 02:06:05;;;;;;;;;;;19.30;67.30;;;;;;5002222;28;1411;-71
2023/11/19 02:08:30;;;;;;;;;;;19.30;67.30;;;;;;5001717;28;1495;-70
2023/11/19 02:10:59;;;;;;;;;;;19.30;67.30;;;;;;5006243;28;1486;-69
2023/11/19 02:13:25;;;;;;;;;;;19.20;67.40;;;;;;5002421;28;1381;-70
2023/11/19 02:15:51;;;;;;;;;;;19.30;67.40;;;;;;4999819;28;1906;-70
2023/11/19 02:18:23;;;;;;;;;;;19.30;67.40;;;;;;5006115;28;1440;-70
2023/11/19 02:20:52;;;;;;;;;;;19.20;67.30;;;;;;5003451;28;1304;-70
2023/11/19 02:23:18;;;;;;;;;;;19.20;67.40;;;;;;5003025;28;1326;-71
2023/11/19 02:25:46;;;;;;;;;;;19.20;67.40;;;;;;5018385;28;1382;-70
2023/11/19 02:28:12;;;;;;;;;;;19.20;67.30;;;;;;4998382;28;1398;-72
2023/11/19 02:30:37;;;;;;;;;;;19.30;67.40;;;;;;5001101;28;1522;-70
2023/11/19 02:33:05;;;;;;;;;;;19.30;67.40;;;;;;5000620;28;1619;-71
2023/11/19 02:35:31;;;;;;;;;;;19.30;67.40;;;;;;5002423;28;1969;-70
2023/11/19 02:37:57;;;;;;;;;;;19.30;67.40;;;;;;4988315;28;1594;-70
2023/11/19 02:40:24;;;;;;;;;;;19.20;67.40;;;;;;5000676;28;1787;-70
2023/11/19 02:42:50;;;;;;;;;;;19.20;67.40;;;;;;5001317;28;1369;-71
2023/11/19 02:45:16;;;;;;;;;;;19.20;67.40;;;;;;5000356;28;1364;-70
2023/11/19 02:47:44;;;;;;;;;;;19.30;67.40;;;;;;5002526;28;1173;-70
2023/11/19 02:50:14;;;;;;;;;;;19.20;67.50;;;;;;4999162;28;1479;-69
2023/11/19 02:52:40;;;;;;;;;;;19.30;67.50;;;;;;5002504;28;1453;-68
2023/11/19 02:55:09;;;;;;;;;;;19.20;67.40;;;;;;5000527;28;1898;-69
2023/11/19 02:57:35;;;;;;;;;;;19.20;68.20;;;;;;5003846;28;1239;-68
2023/11/19 03:00:00;;;;;;;;;;;19.20;67.50;;;;;;5003432;28;1404;-69
2023/11/19 03:02:33;;;;;;;;;;;19.20;67.50;;;;;;4999501;28;1258;-71
2023/11/19 03:04:59;;;;;;;;;;;19.20;67.50;;;;;;5003534;28;1506;-71
2023/11/19 03:07:25;;;;;;;;;;;19.20;67.50;;;;;;4999491;28;1378;-71
2023/11/19 03:09:50;;;;;;;;;;;19.20;67.50;;;;;;4999022;28;1263;-71
2023/11/19 03:12:16;;;;;;;;;;;19.20;67.50;;;;;;5002673;28;1545;-71
2023/11/19 03:14:42;;;;;;;;;;;19.20;67.50;;;;;;5002858;28;1637;-70
2023/11/19 03:17:09;;;;;;;;;;;19.20;67.50;;;;;;4999443;28;1894;-72
2023/11/19 03:19:35;;;;;;;;;;;19.20;67.50;;;;;;5003030;28;1361;-71
2023/11/19 03:22:01;;;;;;;;;;;19.20;67.50;;;;;;4999300;28;1246;-72
2023/11/19 03:24:26;;;;;;;;;;;19.20;67.50;;;;;;5000120;28;1300;-72
2023/11/19 03:26:52;;;;;;;;;;;19.20;67.50;;;;;;5000669;28;1197;-67
2023/11/19 03:29:17;;;;;;;;;;;19.20;67.50;;;;;;4999913;28;1371;-68
2023/11/19 03:31:43;;;;;;;;;;;19.20;67.60;;;;;;5001423;28;1131;-71
2023/11/19 03:34:08;;;;;;;;;;;19.20;67.50;;;;;;5005096;28;1387;-71
2023/11/19 03:36:34;;;;;;;;;;;19.20;67.60;;;;;;5002041;28;1902;-71
2023/11/19 03:39:00;;;;;;;;;;;19.20;67.60;;;;;;5002768;28;1301;-72
2023/11/19 03:41:25;;;;;;;;;;;19.20;67.50;;;;;;5001149;28;1242;-72
2023/11/19 03:43:50;;;;;;;;;;;19.20;67.60;;;;;;5001910;28;1409;-72
2023/11/19 03:46:17;;;;;;;;;;;19.20;67.60;;;;;;5000853;28;1590;-72
2023/11/19 03:48:43;;;;;;;;;;;19.20;67.60;;;;;;4996835;28;1371;-71
2023/11/19 03:51:08;;;;;;;;;;;19.20;67.60;;;;;;5001298;28;1434;-71
2023/11/19 03:53:35;;;;;;;;;;;19.20;67.60;;;;;;5001434;28;1391;-72
2023/11/19 03:56:01;;;;;;;;;;;19.20;67.60;;;;;;5001218;28;1907;-71
2023/11/19 03:58:26;;;;;;;;;;;19.20;67.60;;;;;;4998930;28;1444;-72
2023/11/19 04:00:52;;;;;;;;;;;19.20;67.60;;;;;;4998681;28;2113;-71
2023/11/19 04:03:19;;;;;;;;;;;19.20;67.60;;;;;;5004087;28;1578;-70
2023/11/19 04:05:45;;;;;;;;;;;19.20;67.60;;;;;;5001066;28;1455;-71
2023/11/19 04:08:10;;;;;;;;;;;19.20;67.60;;;;;;5001424;28;1455;-72
2023/11/19 04:10:35;;;;;;;;;;;19.10;67.50;;;;;;5009565;28;1479;-72
2023/11/19 04:13:01;;;;;;;;;;;19.20;67.60;;;;;;5004595;28;1457;-70
2023/11/19 04:15:26;;;;;;;;;;;19.20;67.60;;;;;;5006929;28;1969;-72
2023/11/19 04:17:52;;;;;;;;;;;19.10;67.50;;;;;;5009679;28;924;-71
2023/11/19 04:20:17;;;;;;;;;;;19.20;67.60;;;;;;5008575;28;1149;-71
2023/11/19 04:22:43;;;;;;;;;;;19.20;67.60;;;;;;5006147;28;1261;-72
2023/11/19 04:25:09;;;;;;;;;;;19.20;67.60;;;;;;5005335;28;1322;-71
2023/11/19 04:27:34;;;;;;;;;;;19.20;67.60;;;;;;5017920;28;1557;-71
2023/11/19 04:30:01;;;;;;;;;;;19.20;67.70;;;;;;5002926;28;1478;-70
2023/11/19 04:32:27;;;;;;;;;;;19.20;67.60;;;;;;5002556;28;876;-71
2023/11/19 04:34:52;;;;;;;;;;;19.20;67.60;;;;;;4999438;28;1894;-72
2023/11/19 04:37:18;;;;;;;;;;;19.20;67.70;;;;;;5003262;28;1471;-71
2023/11/19 04:39:46;;;;;;;;;;;19.20;67.70;;;;;;5002175;28;1447;-72
2023/11/19 04:42:12;;;;;;;;;;;19.20;67.70;;;;;;5003784;28;1597;-72
2023/11/19 04:44:37;;;;;;;;;;;19.20;67.70;;;;;;5003992;28;1581;-72
2023/11/19 04:47:03;;;;;;;;;;;19.10;67.60;;;;;;5003987;28;1492;-72
2023/11/19 04:49:30;;;;;;;;;;;19.20;67.70;;;;;;5005620;28;1308;-71
2023/11/19 04:51:55;;;;;;;;;;;19.20;67.90;;;;;;5005343;28;1551;-71
2023/11/19 04:54:21;;;;;;;;;;;19.20;67.70;;;;;;5004598;28;1463;-71
2023/11/19 04:56:49;;;;;;;;;;;19.10;68.40;;;;;;5002638;28;1969;-70
2023/11/19 04:59:15;;;;;;;;;;;19.10;67.60;;;;;;5007064;28;1364;-70
2023/11/19 05:01:40;;;;;;;;;;;19.10;67.60;;;;;;5002846;28;1442;-71
2023/11/19 05:04:07;;;;;;;;;;;19.10;67.70;;;;;;5005463;28;1592;-71
2023/11/19 05:06:32;;;;;;;;;;;19.10;67.70;;;;;;5004169;28;1380;-70
2023/11/19 05:08:58;;;;;;;;;;;19.10;67.70;;;;;;5004842;28;1580;-71
2023/11/19 05:11:24;;;;;;;;;;;19.10;67.70;;;;;;5004765;28;1562;-71
2023/11/19 05:13:50;;;;;;;;;;;19.10;67.60;;;;;;5004388;28;1469;-71
2023/11/19 05:16:15;;;;;;;;;;;19.10;67.70;;;;;;5003956;28;1975;-71
2023/11/19 05:18:41;;;;;;;;;;;19.10;67.70;;;;;;5005243;28;1557;-70
2023/11/19 05:21:06;;;;;;;;;;;19.10;67.70;;;;;;5004922;28;1517;-71
2023/11/19 05:23:33;;;;;;;;;;;19.10;67.70;;;;;;5004822;28;1375;-71
2023/11/19 05:25:59;;;;;;;;;;;19.10;67.70;;;;;;5006756;28;1518;-72
2023/11/19 05:28:25;;;;;;;;;;;19.10;67.70;;;;;;5001376;28;1448;-71
2023/11/19 05:30:51;;;;;;;;;;;19.10;67.70;;;;;;5005958;28;1298;-70
2023/11/19 05:33:17;;;;;;;;;;;19.10;67.70;;;;;;5002974;28;1291;-71
2023/11/19 05:35:42;;;;;;;;;;;19.10;67.70;;;;;;5001378;28;1914;-72
2023/11/19 05:38:09;;;;;;;;;;;19.10;67.70;;;;;;5007085;28;1450;-71
2023/11/19 05:40:35;;;;;;;;;;;19.10;67.70;;;;;;5001957;28;1507;-71
2023/11/19 05:43:00;;;;;;;;;;;19.10;67.70;;;;;;5002606;28;1474;-71
2023/11/19 05:45:26;;;;;;;;;;;19.10;67.80;;;;;;5004726;28;1402;-71
2023/11/19 05:47:52;;;;;;;;;;;19.10;67.70;;;;;;5000294;28;1457;-71
2023/11/19 05:50:17;;;;;;;;;;;19.10;67.70;;;;;;5000329;28;1232;-71
2023/11/19 05:52:43;;;;;;;;;;;19.10;67.70;;;;;;5002888;28;1341;-71
2023/11/19 05:55:12;;;;;;;;;;;19.10;67.70;;;;;;5005173;28;1902;-71
2023/11/19 05:57:38;;;;;;;;;;;19.10;67.80;;;;;;4999897;28;1127;-71
2023/11/19 06:00:06;;;;;;;;;;;19.10;67.70;;;;;;5001678;28;1423;-71
2023/11/19 06:02:38;;;;;;;;;;;19.10;67.80;;;;;;5002276;28;1433;-71
2023/11/19 06:05:05;;;;;;;;;;;19.10;67.80;;;;;;5001131;28;1556;-71
2023/11/19 06:07:31;;;;;;;;;;;19.10;67.80;;;;;;5003517;28;1445;-70
2023/11/19 06:09:56;;;;;;;;;;;19.10;67.80;;;;;;5002839;28;1013;-70
2023/11/19 06:12:22;;;;;;;;;;;19.10;67.80;;;;;;5000980;28;1354;-71
2023/11/19 06:14:47;;;;;;;;;;;19.10;67.80;;;;;;5001555;28;1349;-71
2023/11/19 06:17:13;;;;;;;;;;;19.10;67.80;;;;;;5000267;28;1955;-71
2023/11/19 06:19:39;;;;;;;;;;;19.10;67.80;;;;;;5004729;28;1175;-70
2023/11/19 06:22:04;;;;;;;;;;;19.10;67.80;;;;;;5000409;28;1452;-71
2023/11/19 06:24:30;;;;;;;;;;;19.10;67.80;;;;;;5017209;28;1544;-70
2023/11/19 06:26:55;;;;;;;;;;;19.10;67.90;;;;;;5003043;28;1145;-71
2023/11/19 06:29:21;;;;;;;;;;;19.10;67.80;;;;;;5004931;28;1152;-70
2023/11/19 06:31:48;;;;;;;;;;;19.10;67.80;;;;;;5007196;28;1508;-71
2023/11/19 06:34:14;;;;;;;;;;;19.10;67.80;;;;;;4998970;28;1383;-71
2023/11/19 06:36:39;;;;;;;;;;;19.10;67.80;;;;;;5003878;28;1995;-71
2023/11/19 06:39:05;;;;;;;;;;;19.10;67.80;;;;;;5005412;28;1418;-71
2023/11/19 06:41:31;;;;;;;;;;;19.10;67.80;;;;;;5002274;28;1137;-71
2023/11/19 06:43:56;;;;;;;;;;;19.10;67.80;;;;;;5003320;28;1359;-71
2023/11/19 06:46:22;;;;;;;;;;;19.10;67.80;;;;;;5001746;28;1425;-70
2023/11/19 06:48:47;;;;;;;;;;;19.10;67.80;;;;;;5003223;28;1403;-71
2023/11/19 06:51:13;;;;;;;;;;;19.10;67.80;;;;;;5001823;28;1443;-71
2023/11/19 06:53:44;;;;;;;;;;;19.10;67.80;;;;;;5000920;28;1488;-71
2023/11/19 06:56:22;;;;;;;;;;;19.10;67.90;;;;;;5001655;28;1894;-71
2023/11/19 06:58:50;;;;;;;;;;;19.10;67.80;;;;;;5001761;28;1156;-71
2023/11/19 07:01:16;;;;;;;;;;;19.10;67.80;;;;;;5000260;28;1338;-71
2023/11/19 07:03:41;;;;;;;;;;;19.10;67.80;;;;;;5001328;28;1424;-71
2023/11/19 07:06:09;;;;;;;;;;;19.10;67.80;;;;;;4997707;28;1416;-70
2023/11/19 07:08:36;;;;;;;;;;;19.10;67.80;;;;;;5000723;28;1022;-71
2023/11/19 07:11:02;;;;;;;;;;;19.10;67.70;;;;;;4999469;28;1591;-71
2023/11/19 07:13:27;;;;;;;;;;;19.20;67.80;;;;;;5015153;28;1260;-71
2023/11/19 07:15:54;;;;;;;;;;;19.20;67.70;;;;;;4999749;28;1914;-72
2023/11/19 07:18:21;;;;;;;;;;;19.30;67.70;;;;;;5001218;28;1357;-71
2023/11/19 07:20:47;;;;;;;;;;;19.40;67.80;;;;;;5002612;28;1390;-71
2023/11/19 07:23:14;;;;;;;;;;;19.50;67.50;;;;;;5002194;28;1575;-71
2023/11/19 07:25:40;;;;;;;;;;;19.70;67.20;;;;;;5001336;28;1486;-72
2023/11/19 07:28:05;;;;;;;;;;;19.80;66.80;;;;;;5005302;28;1411;-71
2023/11/19 07:30:31;;;;;;;;;;;19.90;66.30;;;;;;5001961;28;1386;-72
2023/11/19 07:32:56;;;;;;;;;;;20.10;65.90;;;;;;5003087;28;1473;-71
2023/11/19 07:35:22;;;;;;;;;;;20.20;65.50;;;;;;5000886;28;1965;-72
2023/11/19 07:37:47;;;;;;;;;;;20.40;65.20;;;;;;4999293;28;1538;-72
2023/11/19 07:40:13;;;;;;;;;;;20.50;64.90;;;;;;5001348;28;1471;-71
2023/11/19 07:42:38;;;;;;;;;;;20.60;64.60;;;;;;5005535;28;1364;-72
2023/11/19 07:45:05;;;;;;;;;;;20.70;64.20;;;;;;5004686;28;1329;-71
2023/11/19 07:47:30;;;;;;;;;;;20.80;64.00;;;;;;5004570;28;1292;-72
2023/11/19 07:49:56;;;;;;;;;;;20.90;63.60;;;;;;5007649;28;1742;-71
2023/11/19 07:52:21;;;;;;;;;;;20.90;63.30;;;;;;5005668;28;1456;-71
2023/11/19 07:54:47;;;;;;;;;;;21.00;63.10;;;;;;5007010;28;1509;-70
2023/11/19 07:57:12;;;;;;;;;;;21.10;62.80;;;;;;4991184;28;1894;-72
2023/11/19 07:59:39;;;;;;;;;;;21.10;62.60;;;;;;5003484;28;1532;-71
2023/11/19 08:02:05;;;;;;;;;;;21.20;62.30;;;;;;5003467;28;1404;-72
2023/11/19 08:04:30;;;;;;;;;;;21.20;62.10;;;;;;5000974;28;2027;-72
2023/11/19 08:06:57;;;;;;;;;;;21.30;62.10;;;;;;5003758;28;1583;-71
2023/11/19 08:09:23;;;;;;;;;;;21.30;62.00;;;;;;5006890;28;1316;-72
2023/11/19 08:11:48;;;;;;;;;;;21.30;62.00;;;;;;5002656;28;1470;-73
2023/11/19 08:14:14;;;;;;;;;;;21.30;62.00;;;;;;5002588;28;1540;-72
2023/11/19 08:16:39;;;;;;;;;;;21.30;61.90;;;;;;5002530;28;1978;-73
2023/11/19 08:19:05;;;;;;;;;;;21.30;61.90;;;;;;5005308;28;1325;-72
2023/11/19 08:21:30;;;;;;;;;;;21.30;61.80;;;;;;5000935;28;1456;-72
2023/11/19 08:23:56;;;;;;;;;;;21.30;61.80;;;;;;5005217;28;1395;-71
2023/11/19 08:26:21;;;;;;;;;;;21.30;61.80;;;;;;5006276;28;1390;-72
2023/11/19 08:28:47;;;;;;;;;;;21.30;61.70;;;;;;5005213;28;1084;-72
2023/11/19 08:31:12;;;;;;;;;;;21.30;61.70;;;;;;5005463;28;1363;-72
2023/11/19 08:33:38;;;;;;;;;;;21.30;61.80;;;;;;5003063;28;1395;-72
2023/11/19 08:36:04;;;;;;;;;;;21.30;61.70;;;;;;5005189;28;1969;-70
2023/11/19 08:38:30;;;;;;;;;;;21.30;61.80;;;;;;5022229;28;1568;-72
2023/11/19 08:40:59;;;;;;;;;;;21.30;61.80;;;;;;5004776;28;1583;-72
2023/11/19 08:43:25;;;;;;;;;;;21.30;61.80;;;;;;5009186;28;1477;-72
2023/11/19 08:45:51;;;;;;;;;;;21.30;61.80;;;;;;5001991;28;1530;-72
2023/11/19 08:48:16;;;;;;;;;;;21.20;61.80;;;;;;5006125;28;1467;-72
2023/11/19 08:50:42;;;;;;;;;;;21.30;62.00;;;;;;5002534;28;1643;-72
2023/11/19 08:53:07;;;;;;;;;;;21.30;61.90;;;;;;5002169;28;1474;-72
2023/11/19 08:55:33;;;;;;;;;;;21.30;62.00;;;;;;5008097;28;1894;-70
2023/11/19 08:57:58;;;;;;;;;;;21.20;62.00;;;;;;5004263;28;1526;-72
2023/11/19 09:00:24;;;;;;;;;;;21.20;62.00;;;;;;5003227;28;1492;-73
2023/11/19 09:02:49;;;;;;;;;;;21.20;62.10;;;;;;5004078;28;1463;-72
2023/11/19 09:05:15;;;;;;;;;;;21.20;62.10;;;;;;5003932;28;1756;-71
2023/11/19 09:07:40;;;;;;;;;;;21.20;62.20;;;;;;5003025;28;1356;-73
2023/11/19 09:10:08;;;;;;;;;;;21.20;62.20;;;;;;4985177;28;1315;-72
2023/11/19 09:12:34;;;;;;;;;;;21.20;62.30;;;;;;5005100;28;1435;-72
2023/11/19 09:14:59;;;;;;;;;;;21.10;62.30;;;;;;5005575;28;1910;-71
2023/11/19 09:17:25;;;;;;;;;;;21.10;62.40;;;;;;5000227;28;1345;-72
2023/11/19 09:19:50;;;;;;;;;;;21.10;62.40;;;;;;5005366;28;1354;-72
2023/11/19 09:22:16;;;;;;;;;;;21.10;62.50;;;;;;4998922;28;1352;-72
2023/11/19 09:24:43;;;;;;;;;;;21.10;62.50;;;;;;5003994;28;1374;-70
2023/11/19 09:27:09;;;;;;;;;;;21.10;62.60;;;;;;5005477;28;1451;-72
2023/11/19 09:29:34;;;;;;;;;;;21.00;62.60;;;;;;5006474;28;1479;-71
2023/11/19 09:32:00;;;;;;;;;;;21.00;62.60;;;;;;5004796;28;1383;-73
2023/11/19 09:34:26;;;;;;;;;;;21.00;62.70;;;;;;5006339;28;1784;-73
2023/11/19 09:36:51;;;;;;;;;;;21.00;62.70;;;;;;5002753;28;1967;-71
2023/11/19 09:39:17;;;;;;;;;;;21.00;62.80;;;;;;5003072;28;1303;-71
2023/11/19 09:41:45;;;;;;;;;;;21.00;62.90;;;;;;5005288;28;934;-71
2023/11/19 09:44:11;;;;;;;;;;;21.00;62.90;;;;;;5006246;28;1339;-72
2023/11/19 09:46:37;;;;;;;;;;;21.00;63.80;;;;;;5002891;28;1668;-72
2023/11/19 09:49:03;;;;;;;;;;;20.90;62.90;;;;;;5000921;28;1557;-73
2023/11/19 09:51:29;;;;;;;;;;;20.90;63.00;;;;;;5004724;28;1935;-72
2023/11/19 09:53:54;;;;;;;;;;;20.90;63.00;;;;;;5004765;28;1477;-71
2023/11/19 09:56:20;;;;;;;;;;;20.90;63.10;;;;;;5000011;28;1930;-72
2023/11/19 09:58:46;;;;;;;;;;;20.90;63.10;;;;;;5004604;28;1443;-72
2023/11/19 10:01:12;;;;;;;;;;;20.90;63.10;;;;;;5003143;28;1006;-72
2023/11/19 10:03:38;;;;;;;;;;;20.90;63.20;;;;;;4992571;28;4874;-72
2023/11/19 10:06:03;;;;;;;;;;;20.80;63.20;;;;;;4992565;28;4258;-72
2023/11/19 10:08:29;;;;;;;;;;;20.80;63.20;;;;;;4995120;28;4257;-70
2023/11/19 10:10:54;;;;;;;;;;;20.80;63.30;;;;;;4998052;28;4353;-73
2023/11/19 10:13:20;;;;;;;;;;;20.80;63.30;;;;;;4999007;28;4393;-72
2023/11/19 10:15:46;;;;;;;;;;;20.80;63.40;;;;;;5013776;28;4251;-72
2023/11/19 10:18:11;;;;;;;;;;;20.80;63.40;;;;;;4997814;28;4137;-72
2023/11/19 10:20:37;;;;;;;;;;;20.80;63.40;;;;;;4996614;28;4331;-70
2023/11/19 10:23:02;;;;;;;;;;;20.80;63.40;;;;;;4986015;28;4854;-72
2023/11/19 10:25:28;;;;;;;;;;;20.80;63.50;;;;;;4989846;28;4238;-73
2023/11/19 10:27:54;;;;;;;;;;;20.70;63.40;;;;;;5011631;28;4048;-72
2023/11/19 10:30:23;;;;;;;;;;;20.70;63.50;;;;;;5001304;28;1425;-71
2023/11/19 10:33:08;;;;;;;;;;;20.70;63.50;;;;;;5006023;28;1461;-71
2023/11/19 10:35:33;;;;;;;;;;;20.70;63.50;;;;;;5001454;28;1911;-71
2023/11/19 10:38:00;;;;;;;;;;;20.70;63.60;;;;;;4996617;28;1506;-71
2023/11/19 10:40:37;;;;;;;;;;;20.70;63.60;;;;;;5000773;28;1658;-71
2023/11/19 10:43:03;;;;;;;;;;;20.70;63.60;;;;;;5016240;28;1473;-71
2023/11/19 10:45:28;;;;;;;;;;;20.70;63.60;;;;;;5002707;28;1636;-71
2023/11/19 10:47:54;;;;;;;;;;;20.70;63.70;;;;;;5001716;28;1267;-72
2023/11/19 10:50:20;;;;;;;;;;;20.70;63.70;;;;;;5004732;28;1403;-71
2023/11/19 10:52:45;;;;;;;;;;;20.70;63.80;;;;;;5005242;28;1467;-72
2023/11/19 10:55:11;;;;;;;;;;;20.70;63.80;;;;;;4999471;28;1906;-72
2023/11/19 10:57:36;;;;;;;;;;;20.60;63.80;;;;;;5004788;28;1414;-72
2023/11/19 11:00:10;;;;;;;;;;;20.60;63.80;;;;;;5006146;28;1638;-73
2023/11/19 11:02:35;;;;;;;;;;;20.60;63.90;;;;;;5002709;28;1642;-72
2023/11/19 11:05:02;;;;;;;;;;;20.60;63.90;;;;;;5001816;28;1352;-72
2023/11/19 11:07:28;;;;;;;;;;;20.60;64.00;;;;;;4996897;28;1743;-72
2023/11/19 11:09:54;;;;;;;;;;;20.60;64.00;;;;;;4990985;28;4987;-72
2023/11/19 11:12:20;;;;;;;;;;;20.60;64.10;;;;;;4988929;28;4575;-72
2023/11/19 11:14:45;;;;;;;;;;;20.60;64.10;;;;;;4982799;28;4201;-72
2023/11/19 11:17:11;;;;;;;;;;;20.50;64.00;;;;;;4986057;28;1939;-72
2023/11/19 11:19:37;;;;;;;;;;;20.50;64.10;;;;;;4986084;28;4803;-72
2023/11/19 11:22:03;;;;;;;;;;;20.50;64.10;;;;;;4976774;28;1378;-73
2023/11/19 11:24:32;;;;;;;;;;;20.50;64.10;;;;;;5000455;28;1640;-72
2023/11/19 11:27:00;;;;;;;;;;;20.50;64.10;;;;;;4991300;28;1388;-72
2023/11/19 11:29:41;;;;;;;;;;;20.50;64.10;;;;;;5006546;28;1382;-73
2023/11/19 11:32:27;;;;;;;;;;;20.50;64.10;;;;;;5003784;28;1676;-73
2023/11/19 11:34:55;;;;;;;;;;;20.50;64.20;;;;;;5003541;28;1394;-72
2023/11/19 11:37:23;;;;;;;;;;;20.50;64.20;;;;;;5000451;28;1988;-72
2023/11/19 11:39:49;;;;;;;;;;;20.50;64.20;;;;;;5004989;28;1437;-73
2023/11/19 11:42:17;;;;;;;;;;;20.50;64.20;;;;;;5001835;28;1334;-73
2023/11/19 11:45:03;;;;;;;;;;;20.50;64.20;;;;;;5004530;28;1347;-71
2023/11/19 11:47:49;;;;;;;;;;;20.50;64.20;;;;;;5003861;28;1427;-73
2023/11/19 11:50:16;;;;;;;;;;;20.50;64.20;;;;;;5002413;28;1416;-73
2023/11/19 11:52:57;;;;;;;;;;;20.50;64.20;;;;;;5007630;28;1948;-72
2023/11/19 11:55:33;;;;;;;;;;;20.50;64.30;;;;;;5005235;28;1965;-72
2023/11/19 11:57:59;;;;;;;;;;;20.40;64.30;;;;;;4994025;28;2007;-72
2023/11/19 12:00:28;;;;;;;;;;;20.40;64.30;;;;;;5005512;28;1487;-72
2023/11/19 12:02:56;;;;;;;;;;;20.40;64.40;;;;;;5003473;28;1288;-72
2023/11/19 12:05:22;;;;;;;;;;;20.40;64.40;;;;;;5003739;28;1550;-71
2023/11/19 12:07:54;;;;;;;;;;;20.40;64.40;;;;;;4985546;28;1704;-71
2023/11/19 12:10:20;;;;;;;;;;;20.40;64.50;;;;;;4988517;28;1510;-72
2023/11/19 12:12:45;;;;;;;;;;;20.30;64.50;;;;;;5002447;28;1464;-72
2023/11/19 12:15:11;;;;;;;;;;;20.30;64.60;;;;;;5001717;28;1902;-71
2023/11/19 12:17:38;;;;;;;;;;;20.30;64.70;;;;;;5006300;28;1174;-70
2023/11/19 12:20:08;;;;;;;;;;;20.30;64.70;;;;;;5006493;28;1450;-70
2023/11/19 12:22:37;;;;;;;;;;;20.30;64.80;;;;;;4993170;28;1446;-70
2023/11/19 12:25:03;;;;;;;;;;;20.30;64.80;;;;;;5003117;28;1969;-71
2023/11/19 12:27:28;;;;;;;;;;;20.30;64.80;;;;;;4991782;28;1373;-70
2023/11/19 12:29:54;;;;;;;;;;;20.30;64.80;;;;;;5006852;28;1095;-70
2023/11/19 12:32:19;;;;;;;;;;;20.30;64.80;;;;;;4994198;28;1379;-70
2023/11/19 12:34:47;;;;;;;;;;;20.30;64.90;;;;;;5005222;28;1295;-71
2023/11/19 12:37:13;;;;;;;;;;;20.30;64.90;;;;;;4993581;28;2166;-70
2023/11/19 12:39:38;;;;;;;;;;;20.30;64.90;;;;;;4990997;28;1825;-72
2023/11/19 12:42:05;;;;;;;;;;;20.30;65.60;;;;;;5008789;28;1981;-70
2023/11/19 12:44:30;;;;;;;;;;;20.30;65.00;;;;;;5004524;28;1998;-72
2023/11/19 12:47:14;;;;;;;;;;;20.30;64.90;;;;;;5003113;28;2162;-72
2023/11/19 12:49:39;;;;;;;;;;;20.20;64.90;;;;;;4993150;28;1250;-72
2023/11/19 12:52:12;;;;;;;;;;;20.30;65.00;;;;;;4992499;28;1560;-71
2023/11/19 12:54:38;;;;;;;;;;;20.20;64.90;;;;;;4991639;28;1453;-72
2023/11/19 12:57:04;;;;;;;;;;;20.30;65.00;;;;;;4992027;28;1961;-71
2023/11/19 12:59:30;;;;;;;;;;;20.20;65.00;;;;;;5000122;28;1200;-72
2023/11/19 13:01:56;;;;;;;;;;;20.20;65.00;;;;;;5003480;28;970;-72
2023/11/19 13:04:21;;;;;;;;;;;20.20;65.10;;;;;;5003588;28;1481;-72
2023/11/19 13:06:47;;;;;;;;;;;20.20;65.10;;;;;;4991678;28;1020;-73
2023/11/19 13:09:24;;;;;;;;;;;20.20;65.20;;;;;;5002778;28;1212;-72
2023/11/19 13:11:50;;;;;;;;;;;20.20;65.20;;;;;;5006925;28;1329;-73
2023/11/19 13:14:16;;;;;;;;;;;20.20;65.20;;;;;;4986037;28;1367;-72
2023/11/19 13:16:48;;;;;;;;;;;20.20;65.20;;;;;;5002983;28;1914;-72
2023/11/19 13:19:14;;;;;;;;;;;20.10;65.20;;;;;;4992674;28;1541;-73
2023/11/19 13:21:39;;;;;;;;;;;20.20;65.30;;;;;;5002190;28;1128;-73
2023/11/19 13:24:08;;;;;;;;;;;20.10;65.30;;;;;;4999501;28;1351;-73
2023/11/19 13:26:34;;;;;;;;;;;20.10;65.40;;;;;;4984138;28;1328;-73
2023/11/19 13:29:00;;;;;;;;;;;20.10;65.40;;;;;;4983039;28;1588;-72
2023/11/19 13:31:25;;;;;;;;;;;20.10;65.40;;;;;;4990492;28;1573;-73
2023/11/19 13:33:51;;;;;;;;;;;20.10;65.50;;;;;;5002411;28;1447;-73
2023/11/19 13:36:16;;;;;;;;;;;20.10;65.50;;;;;;5000627;28;1972;-72
2023/11/19 13:38:44;;;;;;;;;;;20.10;65.50;;;;;;4990153;28;2317;-73
2023/11/19 13:41:10;;;;;;;;;;;20.00;65.50;;;;;;5004063;28;1450;-73
2023/11/19 13:43:36;;;;;;;;;;;20.00;65.50;;;;;;5003759;28;1371;-74
2023/11/19 13:46:02;;;;;;;;;;;20.00;65.60;;;;;;4984244;28;1340;-72
2023/11/19 13:48:28;;;;;;;;;;;20.00;65.60;;;;;;5002314;28;1252;-73
2023/11/19 13:50:54;;;;;;;;;;;20.00;65.70;;;;;;5001900;28;2045;-73
2023/11/19 13:53:20;;;;;;;;;;;20.00;65.70;;;;;;4985460;28;1390;-72
2023/11/19 13:55:45;;;;;;;;;;;20.00;65.80;;;;;;5002237;28;1910;-73
2023/11/19 13:58:11;;;;;;;;;;;20.00;65.80;;;;;;4983881;28;1198;-73
2023/11/19 14:00:36;;;;;;;;;;;19.90;65.70;;;;;;4999354;28;1811;-73
2023/11/19 14:03:02;;;;;;;;;;;20.00;66.00;;;;;;5000738;28;1575;-73
2023/11/19 14:05:27;;;;;;;;;;;20.00;65.90;;;;;;4981165;28;1634;-73
2023/11/19 14:07:54;;;;;;;;;;;20.00;65.90;;;;;;4990383;28;1023;-73
2023/11/19 14:10:19;;;;;;;;;;;19.90;65.80;;;;;;5002233;28;1381;-74
2023/11/19 14:12:45;;;;;;;;;;;20.00;65.90;;;;;;5001158;28;1960;-73
2023/11/19 14:15:12;;;;;;;;;;;20.00;65.90;;;;;;4986546;28;1902;-72
2023/11/19 14:17:38;;;;;;;;;;;20.00;65.90;;;;;;4990213;28;1401;-73
2023/11/19 14:20:21;;;;;;;;;;;20.00;65.80;;;;;;4989938;28;1267;-73
2023/11/19 14:22:48;;;;;;;;;;;20.00;65.80;;;;;;5004951;28;1406;-72
2023/11/19 14:25:15;;;;;;;;;;;20.00;65.70;;;;;;5001238;28;1437;-73
2023/11/19 14:27:41;;;;;;;;;;;20.00;65.70;;;;;;5001020;28;1507;-73